This is the latest recevied weather packets stored in our database for station/object OE-4057. If no packets are shown the sender has not sent any weather packets the latest 10 day(s).
| Time | Temp. | Humidity | Pressure | Rain* | Wind** | Luminosity | Snow |
|---|---|---|---|---|---|---|---|
| 1787870471 | 19.44° C | 78% | 1015.8 hPa | - | - | - | - |
| 1787868671 | 20° C | 79% | 1015.7 hPa | - | - | - | - |
| 1787866871 | 20° C | 79% | 1015.6 hPa | - | - | - | - |
| 1787865072 | 20.56° C | 75% | 1015.5 hPa | - | - | - | - |
| 1787863271 | 21.67° C | 71% | 1015.2 hPa | - | - | - | - |
| 1787861471 | 22.22° C | 72% | 1014.1 hPa | - | - | - | - |
| 1787859672 | 23.33° C | 69% | 1013.8 hPa | - | - | - | - |
| 1787857871 | 23.89° C | 69% | 1013.7 hPa | - | - | - | - |
| 1787856071 | 24.44° C | 68% | 1013.5 hPa | - | - | - | - |
| 1787854271 | 25.56° C | 67% | 1012.1 hPa | - | - | - | - |
| 1787852710 | 26.67° C | 67% | 1011.9 hPa | - | - | - | - |
| 1787850671 | 27.78° C | 64% | 1011.7 hPa | - | - | - | - |
| 1787848871 | 28.89° C | 57% | 1011.3 hPa | - | - | - | - |
| 1787847071 | 30° C | 50% | 1011.1 hPa | - | - | - | - |
| 1787845270 | 31.11° C | 44% | 1010.9 hPa | - | - | - | - |
| 1787843471 | 31.11° C | 42% | 1010.9 hPa | - | - | - | - |
| 1787841671 | 31.11° C | 41% | 1010.9 hPa | - | - | - | - |
| 1787839871 | 30.56° C | 41% | 1011 hPa | - | - | - | - |
| 1787838071 | 30° C | 41% | 1011.1 hPa | - | - | - | - |
| 1787836271 | 29.44° C | 43% | 1012.3 hPa | - | - | - | - |
| 1787834471 | 30° C | 42% | 1012.2 hPa | - | - | - | - |
| 1787832671 | 28.33° C | 46% | 1013.6 hPa | - | - | - | - |
| 1787830871 | 27.78° C | 48% | 1013.8 hPa | - | - | - | - |
| 1787829071 | 26.11° C | 52% | 1014.2 hPa | - | - | - | - |
| 1787827270 | 24.44° C | 55% | 1015.6 hPa | - | - | - | - |
* Rain since midnight (hover to see other rain measurements)
** Current wind speed in m/s (hover to see current wind gust speed)